Time;durP1;ratioP1;P1;durP2;ratioP2;P2;SDS_P1;SDS_P2;PMS_P1;PMS_P2;Temp;Humidity;BMP_temperature;BMP_pressure;BME280_temperature;BME280_humidity;BME280_pressure;Samples;Min_cycle;Max_cycle;Signal;HPM_P1;HPM_P2
2023/09/08 00:01:25;;;;;;;4.90;4.40;;;21.30;99.90;;;;;;5086207;28;20362;-80
2023/09/08 00:03:50;;;;;;;5.17;4.67;;;21.30;99.90;;;;;;5087397;28;20176;-80
2023/09/08 00:06:16;;;;;;;6.80;5.50;;;21.20;99.90;;;;;;5087087;28;20189;-80
2023/09/08 00:08:43;;;;;;;7.90;5.17;;;21.20;99.70;;;;;;5085849;28;20302;-79
2023/09/08 00:11:08;;;;;;;7.63;5.70;;;21.20;99.90;;;;;;5085462;28;20192;-85
2023/09/08 00:13:34;;;;;;;5.97;5.27;;;21.20;99.90;;;;;;5085544;28;20483;-85
2023/09/08 00:16:00;;;;;;;5.53;5.00;;;21.20;99.90;;;;;;5086977;28;20449;-85
2023/09/08 00:18:25;;;;;;;5.20;4.70;;;21.20;99.90;;;;;;5085374;28;20241;-80
2023/09/08 00:20:51;;;;;;;6.53;5.03;;;21.20;99.90;;;;;;5085270;28;20657;-84
2023/09/08 00:23:17;;;;;;;6.40;4.90;;;21.20;99.90;;;;;;5086625;28;20254;-79
2023/09/08 00:25:42;;;;;;;7.40;5.80;;;21.10;99.90;;;;;;5084964;28;20272;-78
2023/09/08 00:28:08;;;;;;;5.83;4.87;;;21.10;99.90;;;;;;5085616;28;20440;-79
2023/09/08 00:30:34;;;;;;;7.40;5.20;;;21.00;99.90;;;;;;5085634;28;20200;-84
2023/09/08 00:32:59;;;;;;;7.10;5.20;;;20.90;99.90;;;;;;5086062;28;20200;-85
2023/09/08 00:35:25;;;;;;;6.67;5.10;;;21.00;99.90;;;;;;5085473;28;20463;-85
2023/09/08 00:37:51;;;;;;;5.60;5.00;;;21.00;99.90;;;;;;5085100;28;20258;-80
2023/09/08 00:40:17;;;;;;;5.50;5.00;;;20.90;99.90;;;;;;5085001;28;20291;-85
2023/09/08 00:42:42;;;;;;;6.50;4.83;;;20.90;99.90;;;;;;5086286;28;20496;-80
2023/09/08 00:45:08;;;;;;;6.17;5.23;;;20.90;99.90;;;;;;5085254;28;20204;-85
2023/09/08 00:47:35;;;;;;;6.90;5.30;;;20.90;99.90;;;;;;5085050;28;20652;-80
2023/09/08 00:50:05;;;;;;;5.97;4.67;;;20.90;99.90;;;;;;5085942;28;20728;-85
2023/09/08 00:52:32;;;;;;;7.43;5.90;;;20.80;99.90;;;;;;5085214;28;20526;-79
2023/09/08 00:54:59;;;;;;;8.47;5.50;;;20.70;99.90;;;;;;5086468;28;20502;-80
2023/09/08 00:57:25;;;;;;;5.87;5.30;;;20.70;99.90;;;;;;5086170;28;20413;-85
2023/09/08 00:59:50;;;;;;;5.40;4.90;;;20.60;99.90;;;;;;5085014;28;20452;-84
2023/09/08 01:02:16;;;;;;;7.80;6.27;;;20.50;99.90;;;;;;5085652;28;20179;-79
2023/09/08 01:04:42;;;;;;;7.20;5.43;;;20.50;99.90;;;;;;5086388;28;20226;-84
2023/09/08 01:07:09;;;;;;;6.80;5.30;;;20.50;99.90;;;;;;5084084;28;20237;-79
2023/09/08 01:09:35;;;;;;;6.57;4.87;;;20.30;99.90;;;;;;5084887;28;20203;-80
2023/09/08 01:12:06;;;;;;;6.90;5.20;;;20.30;99.90;;;;;;5085591;28;20449;-85
2023/09/08 01:14:32;;;;;;;6.17;5.57;;;20.20;99.90;;;;;;5086593;28;20959;-84
2023/09/08 01:16:58;;;;;;;6.50;5.80;;;20.20;99.90;;;;;;5085787;28;20404;-79
2023/09/08 01:19:24;;;;;;;6.07;4.90;;;20.20;99.90;;;;;;5085948;28;20191;-79
2023/09/08 01:22:13;;;;;;;5.87;5.27;;;20.20;99.90;;;;;;5085377;28;20791;-84
2023/09/08 01:25:01;;;;;;;6.43;4.80;;;20.20;99.90;;;;;;5084674;28;20568;-79
2023/09/08 01:27:31;;;;;;;8.33;5.97;;;20.20;99.90;;;;;;5083588;28;20925;-80
2023/09/08 01:29:58;;;;;;;5.97;4.80;;;20.20;99.90;;;;;;5084850;28;20441;-80
2023/09/08 01:32:24;;;;;;;6.93;5.07;;;20.20;99.90;;;;;;5084196;28;20659;-79
2023/09/08 01:34:51;;;;;;;6.17;5.47;;;20.20;99.90;;;;;;5084419;28;21141;-80
2023/09/08 01:37:17;;;;;;;5.77;4.77;;;20.20;99.90;;;;;;5085959;28;20401;-85
2023/09/08 01:39:42;;;;;;;6.77;5.20;;;20.20;99.90;;;;;;5084823;28;20787;-80
2023/09/08 01:42:08;;;;;;;9.80;6.17;;;20.20;99.90;;;;;;5083827;28;20180;-79
2023/09/08 01:44:34;;;;;;;7.83;5.63;;;20.10;99.90;;;;;;5084517;28;20222;-85
2023/09/08 01:46:59;;;;;;;7.03;5.50;;;20.10;99.90;;;;;;5084172;28;20343;-82
2023/09/08 01:49:25;;;;;;;8.00;5.63;;;20.10;99.90;;;;;;5085461;28;20244;-80
2023/09/08 01:51:51;;;;;;;6.50;5.20;;;20.10;99.90;;;;;;5085563;28;20685;-80
2023/09/08 01:54:17;;;;;;;6.33;5.00;;;20.10;99.90;;;;;;5089584;28;20240;-84
2023/09/08 01:56:43;;;;;;;5.90;5.17;;;20.10;99.90;;;;;;5089865;28;20400;-79
2023/09/08 01:59:08;;;;;;;7.23;5.60;;;20.00;99.90;;;;;;5087974;28;20708;-80
2023/09/08 02:01:34;;;;;;;6.93;5.10;;;20.00;99.90;;;;;;5089810;28;20200;-83
2023/09/08 02:03:59;;;;;;;6.83;5.40;;;20.00;99.90;;;;;;5089115;28;20267;-80
2023/09/08 02:06:25;;;;;;;6.77;5.80;;;19.90;99.90;;;;;;5087999;28;20204;-85
2023/09/08 02:08:51;;;;;;;8.97;7.03;;;19.90;99.90;;;;;;5087696;28;20794;-85
2023/09/08 02:11:16;;;;;;;7.33;5.90;;;19.80;99.90;;;;;;5088094;28;20200;-84
2023/09/08 02:13:42;;;;;;;6.37;5.40;;;19.80;99.90;;;;;;5087871;28;20219;-79
2023/09/08 02:16:12;;;;;;;5.73;4.77;;;19.80;99.90;;;;;;5089665;28;20804;-80
2023/09/08 02:18:38;;;;;;;6.27;4.90;;;19.80;99.90;;;;;;5089293;28;20545;-80
2023/09/08 02:21:04;;;;;;;6.00;5.40;;;19.70;99.90;;;;;;5087539;28;20419;-80
2023/09/08 02:23:30;;;;;;;6.00;5.10;;;19.70;99.90;;;;;;5087322;28;20185;-85
2023/09/08 02:25:55;;;;;;;6.37;5.60;;;19.70;99.90;;;;;;5089046;28;20435;-79
2023/09/08 02:28:21;;;;;;;9.70;5.70;;;19.70;99.90;;;;;;5089145;28;20180;-85
2023/09/08 02:30:46;;;;;;;8.93;5.97;;;19.70;99.90;;;;;;5088009;28;20232;-85
2023/09/08 02:33:12;;;;;;;7.43;6.00;;;19.60;99.90;;;;;;5088444;28;20223;-85
2023/09/08 02:35:40;;;;;;;7.17;5.93;;;19.60;99.90;;;;;;5087647;28;20264;-85
2023/09/08 02:38:06;;;;;;;6.07;5.47;;;19.50;99.90;;;;;;5088715;28;20567;-80
2023/09/08 02:40:34;;;;;;;7.90;6.13;;;19.50;99.90;;;;;;5089088;28;20423;-85
2023/09/08 02:43:00;;;;;;;6.80;5.67;;;19.40;99.90;;;;;;5088323;28;20262;-80
2023/09/08 02:45:26;;;;;;;8.17;5.63;;;19.40;99.90;;;;;;5087753;28;20518;-85
2023/09/08 02:47:52;;;;;;;7.93;5.97;;;19.40;99.90;;;;;;5087138;28;20512;-81
2023/09/08 02:50:17;;;;;;;7.70;6.03;;;19.40;99.90;;;;;;5087503;28;20235;-81
2023/09/08 02:52:44;;;;;;;8.50;5.30;;;19.40;99.90;;;;;;5086877;28;20245;-86
2023/09/08 02:55:10;;;;;;;7.13;5.87;;;19.30;99.90;;;;;;5087074;28;20207;-80
2023/09/08 02:57:36;;;;;;;7.37;5.80;;;19.30;99.90;;;;;;5088366;28;20956;-85
2023/09/08 03:00:01;;;;;;;8.57;6.37;;;19.30;99.90;;;;;;5087011;28;20444;-80
2023/09/08 03:02:27;;;;;;;6.20;5.43;;;19.30;99.90;;;;;;5086860;28;20182;-84
2023/09/08 03:04:53;;;;;;;7.87;6.10;;;19.30;99.90;;;;;;5085729;28;20230;-80
2023/09/08 03:07:18;;;;;;;8.00;6.17;;;19.30;99.90;;;;;;5087964;28;20162;-83
2023/09/08 03:09:44;;;;;;;7.83;6.23;;;19.30;99.90;;;;;;5088414;28;20690;-85
2023/09/08 03:12:09;;;;;;;7.30;6.40;;;19.20;99.90;;;;;;5086574;28;20214;-83
2023/09/08 03:14:35;;;;;;;9.27;6.20;;;19.20;99.90;;;;;;5087037;28;20381;-85
2023/09/08 03:17:01;;;;;;;6.20;5.00;;;19.10;99.90;;;;;;5088238;28;20211;-84
2023/09/08 03:19:27;;;;;;;6.90;6.03;;;19.10;99.90;;;;;;5086703;28;20278;-81
2023/09/08 03:21:52;;;;;;;8.10;5.77;;;19.10;99.90;;;;;;5086139;28;20233;-85
2023/09/08 03:24:18;;;;;;;7.83;6.30;;;19.10;99.90;;;;;;5085306;28;20438;-80
2023/09/08 03:26:44;;;;;;;7.50;6.23;;;19.10;99.90;;;;;;5087576;28;20179;-80
2023/09/08 03:29:09;;;;;;;7.30;6.50;;;19.10;99.90;;;;;;5085046;28;20383;-80
2023/09/08 03:31:35;;;;;;;8.50;6.30;;;19.10;99.90;;;;;;5084490;28;20293;-85
2023/09/08 03:34:00;;;;;;;7.83;5.60;;;19.10;99.90;;;;;;5084884;28;20724;-81
2023/09/08 03:36:26;;;;;;;6.10;5.50;;;19.00;99.90;;;;;;5084769;28;20554;-86
2023/09/08 03:38:51;;;;;;;6.30;5.70;;;19.00;99.90;;;;;;5085502;28;20183;-81
2023/09/08 03:41:18;;;;;;;8.47;6.63;;;18.90;99.90;;;;;;5084357;28;20917;-80
2023/09/08 03:43:43;;;;;;;8.20;6.30;;;18.80;99.90;;;;;;5084893;28;20175;-80
2023/09/08 03:46:09;;;;;;;9.37;6.23;;;18.80;99.90;;;;;;5083728;28;20576;-85
2023/09/08 03:48:34;;;;;;;7.20;5.60;;;18.80;99.90;;;;;;5083048;28;20276;-79
2023/09/08 03:51:00;;;;;;;8.50;6.30;;;18.70;99.90;;;;;;5082632;28;20730;-79
2023/09/08 03:53:26;;;;;;;8.30;6.27;;;18.80;99.90;;;;;;5083981;28;20226;-85
2023/09/08 03:55:51;;;;;;;8.20;6.60;;;18.70;99.90;;;;;;5082579;28;20192;-84
2023/09/08 03:58:17;;;;;;;8.47;5.60;;;18.70;99.90;;;;;;5083314;28;20643;-80
2023/09/08 04:00:43;;;;;;;7.97;6.80;;;18.70;99.90;;;;;;5084172;28;20255;-79
2023/09/08 04:03:08;;;;;;;8.17;6.20;;;18.70;99.90;;;;;;5084285;28;20190;-84
2023/09/08 04:05:34;;;;;;;7.40;6.27;;;18.70;99.90;;;;;;5086880;28;20202;-84
2023/09/08 04:07:59;;;;;;;7.17;5.93;;;18.60;99.90;;;;;;5084538;28;20180;-85
2023/09/08 04:10:25;;;;;;;9.67;6.90;;;18.50;99.90;;;;;;5086148;28;20268;-80
2023/09/08 04:12:51;;;;;;;8.70;5.43;;;18.50;99.90;;;;;;5086056;28;20221;-80
2023/09/08 04:15:17;;;;;;;7.00;6.30;;;18.50;99.90;;;;;;5086370;28;20512;-84
2023/09/08 04:17:43;;;;;;;9.07;6.90;;;18.40;99.90;;;;;;5086323;28;20182;-79
2023/09/08 04:20:09;;;;;;;7.27;5.83;;;18.30;99.90;;;;;;5086582;28;20567;-85
2023/09/08 04:22:35;;;;;;;7.30;6.00;;;18.30;99.90;;;;;;5084741;28;20185;-83
2023/09/08 04:25:01;;;;;;;7.43;6.00;;;18.30;99.90;;;;;;5086576;28;20548;-78
2023/09/08 04:27:27;;;;;;;9.77;6.17;;;18.30;99.90;;;;;;5084367;28;20920;-84
2023/09/08 04:29:52;;;;;;;8.03;6.17;;;18.30;99.90;;;;;;5084280;28;20457;-85
2023/09/08 04:32:18;;;;;;;9.37;6.47;;;18.30;99.90;;;;;;5084508;28;20225;-84
2023/09/08 04:34:44;;;;;;;7.97;6.73;;;18.30;99.90;;;;;;5086093;28;20903;-79
2023/09/08 04:37:09;;;;;;;7.00;5.83;;;18.30;99.90;;;;;;5079994;28;20655;-84
2023/09/08 04:39:36;;;;;;;9.27;6.80;;;18.30;99.90;;;;;;5081795;28;20261;-85
2023/09/08 04:42:03;;;;;;;7.90;6.50;;;18.30;99.90;;;;;;5084313;28;20275;-80
2023/09/08 04:44:28;;;;;;;7.53;6.13;;;18.30;99.90;;;;;;5086088;28;20484;-79
2023/09/08 04:46:54;;;;;;;10.90;7.30;;;18.30;99.90;;;;;;5085568;28;20793;-83
2023/09/08 04:49:20;;;;;;;8.80;6.90;;;18.30;99.90;;;;;;5086252;28;20220;-79
2023/09/08 04:51:45;;;;;;;7.90;6.40;;;18.30;99.90;;;;;;5101470;28;20266;-84
2023/09/08 04:54:12;;;;;;;8.60;6.53;;;18.30;99.90;;;;;;5084807;28;20365;-84
2023/09/08 04:56:39;;;;;;;8.40;6.97;;;18.30;99.90;;;;;;5077146;28;20540;-84
2023/09/08 04:59:05;;;;;;;9.43;6.87;;;18.30;99.90;;;;;;5078760;28;20595;-84
2023/09/08 05:01:32;;;;;;;9.90;6.87;;;18.20;99.90;;;;;;5086009;28;20604;-85
2023/09/08 05:03:59;;;;;;;7.53;5.80;;;18.30;99.90;;;;;;5084347;28;20670;-80
2023/09/08 05:06:25;;;;;;;8.40;7.10;;;18.20;99.90;;;;;;5083106;28;20442;-85
2023/09/08 05:08:50;;;;;;;10.00;7.87;;;18.30;99.90;;;;;;5085619;28;20424;-85
2023/09/08 05:11:17;;;;;;;8.30;6.60;;;18.30;99.90;;;;;;5083856;28;20433;-82
2023/09/08 05:13:42;;;;;;;7.47;5.40;;;18.30;99.90;;;;;;5077359;28;20247;-84
2023/09/08 05:16:11;;;;;;;7.40;6.60;;;18.40;99.90;;;;;;5085180;28;20422;-79
2023/09/08 05:18:38;;;;;;;10.67;6.67;;;18.40;99.90;;;;;;5076821;28;20185;-85
2023/09/08 05:21:04;;;;;;;6.80;5.97;;;18.50;99.90;;;;;;5078696;28;20448;-84
2023/09/08 05:23:30;;;;;;;7.30;5.63;;;18.60;99.90;;;;;;5082801;28;20629;-79
2023/09/08 05:25:56;;;;;;;7.33;5.97;;;18.60;99.90;;;;;;5077733;28;20252;-85
2023/09/08 05:28:21;;;;;;;7.40;6.70;;;18.70;99.90;;;;;;5079798;28;20419;-80
2023/09/08 05:30:47;;;;;;;9.00;7.67;;;18.80;99.90;;;;;;5082642;28;20266;-79
2023/09/08 05:33:13;;;;;;;7.13;6.20;;;18.90;99.90;;;;;;5081523;28;20260;-85
2023/09/08 05:35:38;;;;;;;9.17;7.27;;;18.90;99.90;;;;;;5071064;28;20231;-80
2023/09/08 05:38:05;;;;;;;8.80;7.00;;;19.00;99.90;;;;;;5080454;28;20195;-80
2023/09/08 05:40:30;;;;;;;7.57;6.13;;;19.10;99.90;;;;;;5096922;28;20207;-80
2023/09/08 05:42:56;;;;;;;8.03;7.10;;;19.20;99.90;;;;;;5082250;28;20947;-85
2023/09/08 05:45:22;;;;;;;8.07;6.73;;;19.30;99.90;;;;;;5076796;28;20214;-81
2023/09/08 05:47:49;;;;;;;9.97;7.23;;;19.40;99.90;;;;;;5078212;28;20755;-85
2023/09/08 05:50:15;;;;;;;14.20;8.40;;;19.40;99.90;;;;;;5082248;28;20526;-80
2023/09/08 05:52:40;;;;;;;7.83;7.03;;;19.50;99.90;;;;;;5083758;28;20947;-80
2023/09/08 05:55:06;;;;;;;7.87;6.97;;;19.60;99.90;;;;;;5082419;28;20889;-81
2023/09/08 05:57:32;;;;;;;11.20;7.47;;;19.70;99.90;;;;;;5081393;28;20187;-80
2023/09/08 05:59:57;;;;;;;8.23;6.80;;;19.80;99.90;;;;;;5079763;28;20226;-80
2023/09/08 06:02:23;;;;;;;9.10;7.43;;;19.80;99.90;;;;;;5080595;28;20177;-80
2023/09/08 06:04:48;;;;;;;8.70;6.70;;;19.90;99.90;;;;;;5074555;28;20386;-79
2023/09/08 06:07:14;;;;;;;11.10;7.77;;;20.00;99.90;;;;;;5077526;28;20196;-83
2023/09/08 06:09:40;;;;;;;9.27;7.50;;;20.00;99.90;;;;;;5076387;28;20592;-85
2023/09/08 06:12:06;;;;;;;11.03;8.20;;;20.20;99.90;;;;;;5080828;28;20208;-80
2023/09/08 06:14:31;;;;;;;11.57;7.07;;;20.20;99.90;;;;;;5076147;28;20312;-80
2023/09/08 06:16:57;;;;;;;11.37;7.53;;;20.30;99.90;;;;;;5077984;28;20708;-83
2023/09/08 06:19:22;;;;;;;7.73;6.67;;;20.50;99.90;;;;;;5080188;28;20177;-80
2023/09/08 06:21:48;;;;;;;7.80;7.00;;;20.60;99.90;;;;;;5080279;28;20264;-80
2023/09/08 06:24:14;;;;;;;8.03;6.90;;;20.60;99.90;;;;;;5082216;28;20541;-85
2023/09/08 06:26:39;;;;;;;9.83;7.50;;;20.80;99.90;;;;;;5079602;28;20233;-83
2023/09/08 06:29:05;;;;;;;7.40;6.53;;;20.90;99.90;;;;;;5071914;28;20191;-80
2023/09/08 06:31:31;;;;;;;10.00;7.10;;;21.00;99.90;;;;;;5080627;28;20990;-81
2023/09/08 06:33:56;;;;;;;7.80;6.40;;;21.10;99.90;;;;;;5082019;28;20482;-85
2023/09/08 06:36:22;;;;;;;6.53;5.80;;;21.20;99.90;;;;;;5079108;28;20287;-80
2023/09/08 06:38:48;;;;;;;8.67;6.20;;;21.30;99.90;;;;;;5081494;28;20238;-84
2023/09/08 06:41:13;;;;;;;7.57;6.23;;;21.40;99.90;;;;;;5075830;28;20200;-85
2023/09/08 06:43:39;;;;;;;8.83;7.03;;;21.50;99.90;;;;;;5085828;28;20185;-85
2023/09/08 06:46:05;;;;;;;7.40;5.63;;;21.60;99.90;;;;;;5084282;28;20200;-85
2023/09/08 06:48:31;;;;;;;9.00;6.00;;;21.70;99.90;;;;;;5083354;28;20277;-84
2023/09/08 06:50:57;;;;;;;7.03;6.00;;;21.80;99.90;;;;;;5083391;28;20439;-84
2023/09/08 06:53:25;;;;;;;7.67;5.97;;;21.90;99.90;;;;;;5083258;28;20529;-80
2023/09/08 06:55:51;;;;;;;7.60;6.20;;;22.00;99.90;;;;;;5082794;28;20242;-83
2023/09/08 06:58:17;;;;;;;9.63;5.80;;;22.10;99.90;;;;;;5082447;28;20429;-80
2023/09/08 07:00:43;;;;;;;7.10;5.60;;;22.20;99.90;;;;;;5082247;28;20605;-83
2023/09/08 07:03:08;;;;;;;7.70;5.60;;;22.30;99.90;;;;;;5084183;28;20180;-79
2023/09/08 07:05:34;;;;;;;7.50;6.00;;;22.40;99.90;;;;;;5069204;28;20859;-84
2023/09/08 07:08:00;;;;;;;7.07;6.00;;;22.50;99.90;;;;;;5081251;28;20425;-84
2023/09/08 07:10:26;;;;;;;6.23;5.60;;;22.60;99.90;;;;;;5079385;28;20455;-81
2023/09/08 07:12:51;;;;;;;5.37;4.60;;;22.70;99.90;;;;;;5082235;28;20208;-79
2023/09/08 07:15:17;;;;;;;6.47;5.43;;;22.90;99.90;;;;;;5077269;28;20211;-80
2023/09/08 07:17:43;;;;;;;7.07;5.67;;;23.00;99.90;;;;;;5075100;28;20634;-83
2023/09/08 07:20:09;;;;;;;7.07;5.70;;;23.10;99.90;;;;;;5078936;28;20200;-79
2023/09/08 07:22:34;;;;;;;6.53;5.60;;;23.30;99.90;;;;;;5075040;28;20897;-84
2023/09/08 07:25:00;;;;;;;6.80;5.70;;;23.40;99.90;;;;;;5079186;28;20540;-84
2023/09/08 07:27:26;;;;;;;6.20;5.27;;;23.50;99.90;;;;;;5079570;28;20171;-80
2023/09/08 07:29:51;;;;;;;5.83;5.20;;;23.60;99.90;;;;;;5078300;28;20315;-84
2023/09/08 07:32:17;;;;;;;6.43;5.80;;;23.70;99.90;;;;;;5074939;28;20202;-80
2023/09/08 07:34:43;;;;;;;7.93;6.70;;;23.80;99.90;;;;;;5076220;28;20219;-84
2023/09/08 07:37:08;;;;;;;6.10;5.40;;;23.90;99.90;;;;;;5072185;28;20462;-81
2023/09/08 07:39:35;;;;;;;6.27;4.80;;;24.00;99.90;;;;;;5073600;28;20426;-85
2023/09/08 07:42:01;;;;;;;8.03;5.67;;;24.10;99.90;;;;;;5075718;28;20187;-84
2023/09/08 07:44:27;;;;;;;6.13;5.20;;;24.20;99.90;;;;;;5079040;28;20938;-81
2023/09/08 07:46:55;;;;;;;6.57;5.47;;;24.30;99.90;;;;;;5079766;28;20616;-80
2023/09/08 07:49:21;;;;;;;8.53;5.00;;;24.30;99.90;;;;;;5080756;28;20467;-84
2023/09/08 07:51:47;;;;;;;5.50;5.00;;;24.40;99.90;;;;;;5078371;28;20773;-84
2023/09/08 07:54:13;;;;;;;10.00;5.17;;;24.50;99.90;;;;;;5081444;28;20478;-84
2023/09/08 07:56:40;;;;;;;7.17;5.13;;;24.60;99.90;;;;;;5097457;28;20175;-84
2023/09/08 07:59:06;;;;;;;6.30;5.43;;;24.70;99.90;;;;;;5074835;28;20436;-84
2023/09/08 08:01:32;;;;;;;6.80;5.53;;;24.70;99.90;;;;;;5076372;28;20454;-80
2023/09/08 08:03:58;;;;;;;7.47;5.67;;;24.80;99.90;;;;;;5081111;28;20216;-83
2023/09/08 08:06:24;;;;;;;6.70;5.50;;;24.90;99.90;;;;;;5081720;28;20204;-80
2023/09/08 08:08:49;;;;;;;6.27;5.53;;;25.00;99.90;;;;;;5083048;28;20510;-80
2023/09/08 08:11:17;;;;;;;4.70;4.30;;;25.10;99.90;;;;;;5083713;28;20619;-79
2023/09/08 08:13:43;;;;;;;6.90;5.27;;;25.20;99.90;;;;;;5078766;28;20208;-84
2023/09/08 08:16:09;;;;;;;7.07;5.40;;;25.30;99.90;;;;;;5076199;28;20453;-80
2023/09/08 08:18:35;;;;;;;5.57;5.00;;;25.40;99.90;;;;;;5079569;28;20803;-84
2023/09/08 08:21:03;;;;;;;5.73;5.13;;;25.50;99.90;;;;;;5061104;28;20282;-84
2023/09/08 08:23:28;;;;;;;6.27;5.07;;;25.60;99.90;;;;;;5078192;28;20226;-84
2023/09/08 08:25:54;;;;;;;7.07;5.30;;;25.70;99.90;;;;;;5080959;28;20797;-85
2023/09/08 08:28:21;;;;;;;6.00;5.20;;;25.80;99.90;;;;;;5076601;28;20528;-85
2023/09/08 08:30:47;;;;;;;5.47;4.97;;;26.00;99.50;;;;;;5077553;28;20231;-80
2023/09/08 08:33:16;;;;;;;6.07;5.47;;;26.20;99.40;;;;;;5076157;28;20625;-84
2023/09/08 08:35:41;;;;;;;5.87;4.60;;;26.60;98.90;;;;;;5076574;28;20498;-80
2023/09/08 08:38:07;;;;;;;5.27;4.50;;;27.30;98.90;;;;;;5078004;28;21031;-84
2023/09/08 08:40:34;;;;;;;6.03;5.13;;;28.20;97.40;;;;;;5081184;28;20196;-81
2023/09/08 08:43:00;;;;;;;6.23;5.43;;;28.90;96.50;;;;;;5079714;28;20203;-81
2023/09/08 08:45:26;;;;;;;5.43;4.77;;;29.80;94.20;;;;;;5081406;28;20425;-80
2023/09/08 08:47:53;;;;;;;4.67;4.23;;;30.40;93.50;;;;;;5080205;28;20846;-84
2023/09/08 08:50:20;;;;;;;5.70;4.30;;;30.70;93.60;;;;;;5082900;28;20823;-81
2023/09/08 08:52:46;;;;;;;6.53;5.07;;;30.70;93.80;;;;;;5080291;28;20866;-80
2023/09/08 08:55:12;;;;;;;6.30;4.80;;;30.70;93.00;;;;;;5079438;28;20483;-84
2023/09/08 08:57:39;;;;;;;5.37;4.87;;;30.60;92.20;;;;;;5074950;28;20607;-84
2023/09/08 09:00:10;;;;;;;5.13;4.63;;;30.40;92.10;;;;;;5076191;28;20839;-84
2023/09/08 09:02:43;;;;;;;6.07;4.87;;;30.10;92.10;;;;;;5082848;28;20383;-84
2023/09/08 09:05:15;;;;;;;5.03;4.63;;;29.80;91.90;;;;;;5082068;28;20980;-80
2023/09/08 09:07:44;;;;;;;5.10;4.60;;;29.60;92.90;;;;;;5080282;28;20778;-84
2023/09/08 09:10:10;;;;;;;5.20;4.60;;;29.50;92.20;;;;;;5081231;28;20691;-84
2023/09/08 09:12:39;;;;;;;5.57;5.07;;;29.40;91.70;;;;;;5079159;28;20469;-85
2023/09/08 09:15:06;;;;;;;5.37;4.73;;;29.20;91.60;;;;;;5081577;28;20474;-79
2023/09/08 09:17:36;;;;;;;6.00;4.60;;;29.10;92.10;;;;;;5081084;28;20835;-80
2023/09/08 09:20:17;;;;;;;4.73;4.23;;;29.00;92.50;;;;;;5080049;28;20448;-84
2023/09/08 09:22:43;;;;;;;6.20;4.07;;;28.90;92.30;;;;;;5069246;28;20535;-80
2023/09/08 09:25:10;;;;;;;6.93;4.73;;;28.80;92.20;;;;;;5069417;28;21060;-80
2023/09/08 09:27:40;;;;;;;6.00;4.43;;;28.70;92.60;;;;;;5079064;28;20432;-84
2023/09/08 09:30:07;;;;;;;4.53;4.13;;;28.70;92.60;;;;;;5078949;28;20471;-84
2023/09/08 09:32:35;;;;;;;6.63;5.40;;;28.70;91.30;;;;;;5078910;28;20619;-81
2023/09/08 09:35:01;;;;;;;5.70;5.13;;;28.70;91.80;;;;;;5080661;28;20451;-81
2023/09/08 09:37:26;;;;;;;7.83;4.33;;;28.70;91.90;;;;;;5076383;28;20973;-80
2023/09/08 09:39:54;;;;;;;4.93;4.53;;;28.70;91.80;;;;;;5070180;28;20202;-85
2023/09/08 09:42:21;;;;;;;6.00;4.03;;;28.60;91.30;;;;;;5074580;28;20524;-85
2023/09/08 09:44:48;;;;;;;5.47;4.27;;;28.50;91.90;;;;;;5072819;28;20566;-85
2023/09/08 09:47:16;;;;;;;4.57;3.80;;;28.40;92.90;;;;;;5092653;28;21048;-85
2023/09/08 09:49:46;;;;;;;4.70;4.23;;;28.40;92.90;;;;;;5065026;28;20464;-85
2023/09/08 09:52:13;;;;;;;5.03;4.60;;;28.40;92.70;;;;;;5072751;28;21002;-81
2023/09/08 09:54:43;;;;;;;5.37;4.57;;;28.50;91.80;;;;;;5067512;28;20978;-81
2023/09/08 09:57:13;;;;;;;5.77;4.50;;;28.60;91.30;;;;;;5076330;28;20488;-80
2023/09/08 09:59:41;;;;;;;4.67;4.27;;;28.60;91.40;;;;;;5073494;28;20470;-80
2023/09/08 10:02:14;;;;;;;6.17;5.50;;;28.60;91.10;;;;;;5075968;28;20463;-85
2023/09/08 10:04:45;;;;;;;5.40;4.73;;;28.60;91.70;;;;;;5078744;28;20467;-81
2023/09/08 10:07:11;;;;;;;5.23;4.73;;;28.60;91.80;;;;;;5070484;28;20950;-85
2023/09/08 10:09:37;;;;;;;4.57;4.17;;;28.60;91.20;;;;;;5075647;28;20465;-80
2023/09/08 10:12:08;;;;;;;4.20;3.80;;;28.60;91.50;;;;;;5073300;28;20210;-85
2023/09/08 10:14:36;;;;;;;5.27;4.27;;;28.60;91.10;;;;;;5070625;28;20909;-84
2023/09/08 10:17:04;;;;;;;6.23;5.43;;;28.60;91.30;;;;;;5081395;28;20524;-81
2023/09/08 10:19:30;;;;;;;4.40;3.67;;;28.70;91.60;;;;;;5075956;28;20797;-80
2023/09/08 10:22:00;;;;;;;5.23;4.57;;;28.70;91.00;;;;;;5081738;28;20434;-84
2023/09/08 10:24:32;;;;;;;4.57;4.13;;;28.70;91.30;;;;;;5081738;28;20452;-84
2023/09/08 10:27:04;;;;;;;4.70;4.30;;;28.80;91.20;;;;;;5078060;28;20431;-80
2023/09/08 10:29:31;;;;;;;4.30;3.90;;;28.90;90.60;;;;;;5077160;28;20447;-80
2023/09/08 10:31:57;;;;;;;4.43;4.03;;;28.90;90.90;;;;;;5078597;28;20458;-80
2023/09/08 10:34:25;;;;;;;4.33;3.93;;;28.90;91.40;;;;;;5082106;28;20411;-84
2023/09/08 10:36:51;;;;;;;4.63;3.83;;;29.00;91.00;;;;;;5081383;28;20779;-85
2023/09/08 10:39:37;;;;;;;3.83;3.47;;;29.00;91.30;;;;;;5080378;28;20488;-80
2023/09/08 10:42:20;;;;;;;4.63;3.90;;;29.00;90.00;;;;;;5074262;28;20465;-84
2023/09/08 10:44:49;;;;;;;4.23;3.57;;;29.10;90.20;;;;;;5081458;28;20813;-84
2023/09/08 10:47:56;;;;;;;4.73;4.30;;;29.10;90.00;;;;;;5082028;28;20426;-80
2023/09/08 10:50:38;;;;;;;6.07;4.23;;;29.10;91.10;;;;;;5072562;28;20485;-79
2023/09/08 10:53:18;;;;;;;5.87;4.17;;;29.10;91.70;;;;;;5079473;28;20471;-85
2023/09/08 10:55:50;;;;;;;4.40;4.00;;;29.10;90.80;;;;;;5082053;28;20807;-80
2023/09/08 10:58:28;;;;;;;5.00;4.20;;;29.20;90.30;;;;;;5083871;28;20428;-84
2023/09/08 11:00:59;;;;;;;6.00;4.70;;;29.20;89.60;;;;;;5083663;28;20533;-81
2023/09/08 11:03:44;;;;;;;4.60;4.20;;;29.20;88.10;;;;;;5079471;28;20465;-80
2023/09/08 11:06:10;;;;;;;4.07;3.70;;;29.30;89.00;;;;;;5078207;28;20451;-80
2023/09/08 11:08:42;;;;;;;3.50;3.20;;;29.30;87.50;;;;;;5089804;28;21100;-84
2023/09/08 11:11:10;;;;;;;4.57;4.17;;;29.30;88.10;;;;;;5071753;28;20463;-85
2023/09/08 11:13:36;;;;;;;4.40;4.00;;;29.30;88.60;;;;;;5071635;28;20562;-84
2023/09/08 11:16:02;;;;;;;4.20;3.80;;;29.40;87.70;;;;;;5075633;28;20439;-81
2023/09/08 11:18:33;;;;;;;3.97;3.60;;;29.40;88.20;;;;;;5075862;28;20204;-80
2023/09/08 11:21:00;;;;;;;5.37;3.97;;;29.40;88.10;;;;;;5076398;28;20820;-84
2023/09/08 11:23:26;;;;;;;5.43;4.20;;;29.40;88.80;;;;;;5071271;28;20444;-85
2023/09/08 11:25:52;;;;;;;5.90;4.23;;;29.40;90.50;;;;;;5074130;28;20449;-80
2023/09/08 11:28:19;;;;;;;4.43;4.03;;;29.40;88.10;;;;;;5077072;28;20181;-80
2023/09/08 11:30:48;;;;;;;4.90;3.97;;;29.50;87.10;;;;;;5073844;28;20797;-80
2023/09/08 11:33:15;;;;;;;4.50;4.10;;;29.50;88.60;;;;;;5069506;28;20491;-84
2023/09/08 11:35:43;;;;;;;3.90;3.50;;;29.50;90.10;;;;;;5073180;28;20473;-85
2023/09/08 11:38:10;;;;;;;7.40;3.93;;;29.50;90.10;;;;;;5071553;28;20503;-80
2023/09/08 11:40:36;;;;;;;4.07;3.70;;;29.30;89.20;;;;;;5078536;28;20501;-85
2023/09/08 11:43:02;;;;;;;4.80;4.30;;;29.50;87.90;;;;;;5079611;28;21003;-81
2023/09/08 11:45:30;;;;;;;5.13;3.90;;;29.50;87.60;;;;;;5078882;28;20724;-80
2023/09/08 11:47:56;;;;;;;5.13;3.97;;;29.60;87.60;;;;;;5073874;28;20985;-80
2023/09/08 11:50:23;;;;;;;4.23;3.83;;;29.70;88.30;;;;;;5081985;28;20834;-80
2023/09/08 11:52:51;;;;;;;4.87;4.23;;;29.70;88.20;;;;;;5078518;28;20452;-85
2023/09/08 11:55:18;;;;;;;4.53;3.77;;;29.60;90.00;;;;;;5078567;28;20705;-84
2023/09/08 11:57:46;;;;;;;4.20;3.80;;;29.70;89.90;;;;;;5079784;28;20423;-84
2023/09/08 12:00:17;;;;;;;4.37;3.93;;;29.50;90.50;;;;;;5077601;28;20788;-84
2023/09/08 12:02:43;;;;;;;6.40;4.23;;;29.60;90.50;;;;;;5074317;28;21113;-80
2023/09/08 12:05:26;;;;;;;4.17;3.77;;;29.60;90.50;;;;;;5075130;28;20714;-84
2023/09/08 12:07:54;;;;;;;4.33;3.93;;;29.60;90.40;;;;;;5069347;28;20420;-85
2023/09/08 12:10:19;;;;;;;4.33;3.93;;;29.60;89.50;;;;;;5060357;28;20807;-87
2023/09/08 12:12:55;;;;;;;4.50;4.10;;;29.70;88.00;;;;;;5077136;28;20473;-84
2023/09/08 12:15:36;;;;;;;5.30;4.80;;;29.60;90.00;;;;;;5078021;28;20468;-80
2023/09/08 12:18:05;;;;;;;5.37;4.23;;;29.80;86.90;;;;;;5081519;28;20770;-83
2023/09/08 12:20:31;;;;;;;5.03;4.53;;;29.80;85.10;;;;;;5074820;28;21043;-85
2023/09/08 12:23:04;;;;;;;4.70;4.20;;;29.80;85.20;;;;;;5073137;28;20783;-80
2023/09/08 12:25:31;;;;;;;3.90;3.60;;;29.90;83.20;;;;;;5076484;28;20457;-80
2023/09/08 12:27:57;;;;;;;4.77;4.23;;;29.90;83.10;;;;;;5078941;28;20979;-81
2023/09/08 12:30:29;;;;;;;5.80;4.40;;;29.90;84.90;;;;;;5066471;28;20447;-80
2023/09/08 12:32:56;;;;;;;5.03;4.53;;;29.90;86.30;;;;;;5063193;28;20476;-81
2023/09/08 12:35:23;;;;;;;4.63;3.93;;;29.90;83.70;;;;;;5068383;28;20457;-83
2023/09/08 12:37:59;;;;;;;4.00;3.70;;;30.00;83.90;;;;;;5079339;28;20459;-80
2023/09/08 12:40:30;;;;;;;5.37;4.87;;;30.00;85.90;;;;;;5080347;28;20971;-83
2023/09/08 12:42:57;;;;;;;4.87;4.03;;;30.10;83.60;;;;;;5080994;28;20952;-79
2023/09/08 12:45:26;;;;;;;4.17;3.80;;;30.20;81.90;;;;;;5080815;28;20521;-82